Summerfield, Illinois
Current Conditions -  °F | °C
As of 9:58 PM on Saturday 24 Jan 2015 (Local Time) from KBLV Reporting Station
Broken Clouds Broken Clouds  
Wind Chill: 43°   Ceiling: 14000
Heat Index: 46°   Visibility: 10mi
Dew Point: 33°   Wind: 6mph
Humidity: 60%   Direction: 200°SSW
Pressure: 29.73"   Gusts: NA
Location:  38.6°N, 89.75°W
Report Text: KBLV 250358Z AUTO 20005KT 10SM BKN140 08/00 A2973 RMK AO2 SLP072 T00760003
Loading
Personal Weather Stations






























Interactive Weather Map New forecast layout! Learn more

10-Day Weather Forecast

Advertisements
Track Severe Weather on mobile